Main page
METAR-TAF:

METAR-TAF

Airports :

João Paulo II Airport

Ponta Delgada, Azores, Portugal

latitude: 37-44N, longitude: 025-42W, elevation: 71 m

Current weather observation

The report was made 29 minutes ago, at 03:00 UTC
Wind 7 kt from the East/Northeast
Temperature 14°C
Humidity 63%
Pressure 1028 hPa
Visibility 10 km or more
Few clouds at a height of 2300 ft
Scattered clouds at a height of 4500 ft

METAR: LPPD 220300Z 07007KT 9999 FEW023 SCT045 14/07 Q1028

Time: 02:29 (03:29 UTC)

Forecast

The report was made 4 hours and 29 minutes ago, at 23:00 UTC
Forecast valid from 22 at 00 UTC to 22 at 24 UTC
Wind 12 kt from the East/Northeast
Visibility 10 km or more
Few clouds at a height of 2000 ft
Broken clouds at a height of 4500 ft
Temporary
from 22 at 00 UTC to 22 at 24 UTC
Scattered clouds at a height of 2500 ft

TAF: LPPD 212300Z 2200/2224 06012KT 9999 FEW020 BKN045 TEMPO 2200/2224 SCT025

Weather observations and forecasts of more than 4000 airports (METAR and TAF reports).

The available stations are represented by yellow and red dots on the map.

Hover mouse over dot to see the name of the station.

Then click to see weather observations and forecasts.

To change the map : click on the green buttons with a black cross to zoom in, on the green button with a dash to zoom out, or on the green arrows for adjacent maps.


METAR-TAF: